sensor_id;sensor_type;location;lat;lon;timestamp;P1;durP1;ratioP1;P2;durP2;ratioP2
71975;SDS011;68326;52.124;5.424;2023-03-24T00:00:12;2.38;;;0.90;;
71975;SDS011;68326;52.124;5.424;2023-03-24T00:02:41;3.17;;;0.75;;
71975;SDS011;68326;52.124;5.424;2023-03-24T00:05:09;3.72;;;0.88;;
71975;SDS011;68326;52.124;5.424;2023-03-24T00:07:38;3.75;;;1.02;;
71975;SDS011;68326;52.124;5.424;2023-03-24T00:10:06;3.10;;;0.97;;
71975;SDS011;68326;52.124;5.424;2023-03-24T00:12:37;3.15;;;1.30;;
71975;SDS011;68326;52.124;5.424;2023-03-24T00:15:05;4.07;;;0.90;;
71975;SDS011;68326;52.124;5.424;2023-03-24T00:17:33;2.17;;;0.75;;
71975;SDS011;68326;52.124;5.424;2023-03-24T00:20:02;1.95;;;0.80;;
71975;SDS011;68326;52.124;5.424;2023-03-24T00:22:33;1.77;;;0.57;;
71975;SDS011;68326;52.124;5.424;2023-03-24T00:25:01;4.20;;;0.98;;
71975;SDS011;68326;52.124;5.424;2023-03-24T00:27:29;4.10;;;0.85;;
71975;SDS011;68326;52.124;5.424;2023-03-24T00:29:56;4.38;;;1.05;;
71975;SDS011;68326;52.124;5.424;2023-03-24T00:32:24;5.45;;;1.20;;
71975;SDS011;68326;52.124;5.424;2023-03-24T00:34:52;4.80;;;1.10;;
71975;SDS011;68326;52.124;5.424;2023-03-24T00:37:19;5.05;;;1.00;;
71975;SDS011;68326;52.124;5.424;2023-03-24T00:39:45;4.90;;;1.08;;
71975;SDS011;68326;52.124;5.424;2023-03-24T00:42:12;2.85;;;0.93;;
71975;SDS011;68326;52.124;5.424;2023-03-24T00:44:38;4.88;;;1.00;;
71975;SDS011;68326;52.124;5.424;2023-03-24T00:47:05;3.40;;;1.00;;
71975;SDS011;68326;52.124;5.424;2023-03-24T00:49:31;6.50;;;0.90;;
71975;SDS011;68326;52.124;5.424;2023-03-24T00:52:14;3.90;;;1.15;;
71975;SDS011;68326;52.124;5.424;2023-03-24T00:54:46;2.03;;;1.05;;
71975;SDS011;68326;52.124;5.424;2023-03-24T00:57:15;3.90;;;0.90;;
71975;SDS011;68326;52.124;5.424;2023-03-24T00:59:51;2.20;;;1.20;;
71975;SDS011;68326;52.124;5.424;2023-03-24T01:02:20;3.20;;;1.10;;
71975;SDS011;68326;52.124;5.424;2023-03-24T01:04:53;2.97;;;1.15;;
71975;SDS011;68326;52.124;5.424;2023-03-24T01:07:22;3.05;;;1.20;;
71975;SDS011;68326;52.124;5.424;2023-03-24T01:09:50;3.55;;;1.10;;
71975;SDS011;68326;52.124;5.424;2023-03-24T01:12:23;2.03;;;0.93;;
71975;SDS011;68326;52.124;5.424;2023-03-24T01:14:51;2.25;;;0.90;;
71975;SDS011;68326;52.124;5.424;2023-03-24T01:17:18;5.00;;;1.15;;
71975;SDS011;68326;52.124;5.424;2023-03-24T01:19:47;4.00;;;1.50;;
71975;SDS011;68326;52.124;5.424;2023-03-24T01:22:14;2.35;;;0.88;;
71975;SDS011;68326;52.124;5.424;2023-03-24T01:24:41;4.00;;;1.20;;
71975;SDS011;68326;52.124;5.424;2023-03-24T01:27:09;2.17;;;1.05;;
71975;SDS011;68326;52.124;5.424;2023-03-24T01:29:35;2.40;;;1.30;;
71975;SDS011;68326;52.124;5.424;2023-03-24T01:32:02;3.30;;;1.50;;
71975;SDS011;68326;52.124;5.424;2023-03-24T01:34:29;1.90;;;1.00;;
71975;SDS011;68326;52.124;5.424;2023-03-24T01:36:55;3.27;;;1.07;;
71975;SDS011;68326;52.124;5.424;2023-03-24T01:39:21;3.45;;;0.93;;
71975;SDS011;68326;52.124;5.424;2023-03-24T01:41:48;2.85;;;1.05;;
71975;SDS011;68326;52.124;5.424;2023-03-24T01:47:05;2.20;;;1.02;;
71975;SDS011;68326;52.124;5.424;2023-03-24T01:49:52;3.47;;;1.13;;
71975;SDS011;68326;52.124;5.424;2023-03-24T01:52:24;2.63;;;1.10;;
71975;SDS011;68326;52.124;5.424;2023-03-24T01:54:54;2.50;;;1.00;;
71975;SDS011;68326;52.124;5.424;2023-03-24T01:57:59;3.80;;;1.40;;
71975;SDS011;68326;52.124;5.424;2023-03-24T02:00:21;2.75;;;1.00;;
71975;SDS011;68326;52.124;5.424;2023-03-24T02:02:49;2.40;;;1.00;;
71975;SDS011;68326;52.124;5.424;2023-03-24T02:05:20;2.08;;;1.20;;
71975;SDS011;68326;52.124;5.424;2023-03-24T02:07:52;3.47;;;1.10;;
71975;SDS011;68326;52.124;5.424;2023-03-24T02:10:29;4.15;;;1.33;;
71975;SDS011;68326;52.124;5.424;2023-03-24T02:12:57;2.92;;;1.45;;
71975;SDS011;68326;52.124;5.424;2023-03-24T02:15:25;2.20;;;1.03;;
71975;SDS011;68326;52.124;5.424;2023-03-24T02:20:41;3.03;;;1.13;;
71975;SDS011;68326;52.124;5.424;2023-03-24T02:31:51;5.72;;;1.27;;
71975;SDS011;68326;52.124;5.424;2023-03-24T02:34:39;2.70;;;1.58;;
71975;SDS011;68326;52.124;5.424;2023-03-24T02:43:25;2.10;;;0.80;;
71975;SDS011;68326;52.124;5.424;2023-03-24T02:46:25;1.98;;;0.57;;
71975;SDS011;68326;52.124;5.424;2023-03-24T02:49:09;2.13;;;0.65;;
71975;SDS011;68326;52.124;5.424;2023-03-24T02:51:51;1.58;;;0.40;;
71975;SDS011;68326;52.124;5.424;2023-03-24T02:54:46;1.70;;;0.55;;
71975;SDS011;68326;52.124;5.424;2023-03-24T02:59:59;1.88;;;0.73;;
71975;SDS011;68326;52.124;5.424;2023-03-24T03:02:40;1.98;;;0.60;;
71975;SDS011;68326;52.124;5.424;2023-03-24T03:05:15;0.77;;;0.30;;
71975;SDS011;68326;52.124;5.424;2023-03-24T03:07:49;1.23;;;0.30;;
71975;SDS011;68326;52.124;5.424;2023-03-24T03:10:22;1.33;;;0.20;;
71975;SDS011;68326;52.124;5.424;2023-03-24T03:12:53;0.40;;;0.10;;
71975;SDS011;68326;52.124;5.424;2023-03-24T03:15:57;2.47;;;0.20;;
71975;SDS011;68326;52.124;5.424;2023-03-24T03:18:23;2.58;;;0.20;;
71975;SDS011;68326;52.124;5.424;2023-03-24T03:21:03;1.75;;;0.17;;
71975;SDS011;68326;52.124;5.424;2023-03-24T03:23:35;2.10;;;0.20;;
71975;SDS011;68326;52.124;5.424;2023-03-24T03:26:07;2.00;;;0.20;;
71975;SDS011;68326;52.124;5.424;2023-03-24T03:28:40;2.63;;;0.20;;
71975;SDS011;68326;52.124;5.424;2023-03-24T03:31:22;3.80;;;0.20;;
71975;SDS011;68326;52.124;5.424;2023-03-24T03:33:58;1.88;;;0.20;;
71975;SDS011;68326;52.124;5.424;2023-03-24T03:36:40;1.47;;;0.20;;
71975;SDS011;68326;52.124;5.424;2023-03-24T03:39:15;2.25;;;0.70;;
71975;SDS011;68326;52.124;5.424;2023-03-24T03:42:04;4.22;;;0.30;;
71975;SDS011;68326;52.124;5.424;2023-03-24T03:44:32;1.95;;;0.20;;
71975;SDS011;68326;52.124;5.424;2023-03-24T03:46:58;2.55;;;0.20;;
71975;SDS011;68326;52.124;5.424;2023-03-24T03:49:25;5.03;;;0.20;;
71975;SDS011;68326;52.124;5.424;2023-03-24T03:51:52;3.10;;;0.30;;
71975;SDS011;68326;52.124;5.424;2023-03-24T03:54:20;4.55;;;0.43;;
71975;SDS011;68326;52.124;5.424;2023-03-24T03:56:49;1.67;;;0.30;;
71975;SDS011;68326;52.124;5.424;2023-03-24T04:01:54;4.23;;;0.50;;
71975;SDS011;68326;52.124;5.424;2023-03-24T04:04:29;5.10;;;1.02;;
71975;SDS011;68326;52.124;5.424;2023-03-24T04:07:18;7.07;;;0.50;;
71975;SDS011;68326;52.124;5.424;2023-03-24T04:15:41;4.40;;;0.40;;
71975;SDS011;68326;52.124;5.424;2023-03-24T04:26:29;8.82;;;0.70;;
71975;SDS011;68326;52.124;5.424;2023-03-24T04:29:14;3.57;;;0.47;;
71975;SDS011;68326;52.124;5.424;2023-03-24T04:34:37;5.32;;;0.40;;
71975;SDS011;68326;52.124;5.424;2023-03-24T04:37:08;8.45;;;1.00;;
71975;SDS011;68326;52.124;5.424;2023-03-24T04:39:40;7.05;;;0.70;;
71975;SDS011;68326;52.124;5.424;2023-03-24T04:42:11;3.83;;;0.53;;
71975;SDS011;68326;52.124;5.424;2023-03-24T04:44:43;7.47;;;0.70;;
71975;SDS011;68326;52.124;5.424;2023-03-24T04:47:10;8.90;;;1.08;;
71975;SDS011;68326;52.124;5.424;2023-03-24T04:49:38;5.47;;;0.70;;
71975;SDS011;68326;52.124;5.424;2023-03-24T04:52:05;9.23;;;0.70;;
71975;SDS011;68326;52.124;5.424;2023-03-24T04:54:33;7.07;;;0.80;;
71975;SDS011;68326;52.124;5.424;2023-03-24T04:56:59;7.18;;;0.60;;
71975;SDS011;68326;52.124;5.424;2023-03-24T04:59:27;11.35;;;0.75;;
71975;SDS011;68326;52.124;5.424;2023-03-24T05:01:54;10.05;;;1.00;;
71975;SDS011;68326;52.124;5.424;2023-03-24T05:04:22;9.00;;;0.93;;
71975;SDS011;68326;52.124;5.424;2023-03-24T05:06:50;6.43;;;0.50;;
71975;SDS011;68326;52.124;5.424;2023-03-24T05:09:17;9.27;;;0.70;;
71975;SDS011;68326;52.124;5.424;2023-03-24T05:11:46;11.77;;;1.13;;
71975;SDS011;68326;52.124;5.424;2023-03-24T05:14:14;6.47;;;1.00;;
71975;SDS011;68326;52.124;5.424;2023-03-24T05:16:41;8.65;;;0.90;;
71975;SDS011;68326;52.124;5.424;2023-03-24T05:19:08;6.90;;;0.63;;
71975;SDS011;68326;52.124;5.424;2023-03-24T05:21:35;4.93;;;0.90;;
71975;SDS011;68326;52.124;5.424;2023-03-24T05:24:02;9.85;;;0.68;;
71975;SDS011;68326;52.124;5.424;2023-03-24T05:26:28;8.20;;;0.60;;
71975;SDS011;68326;52.124;5.424;2023-03-24T05:28:58;9.40;;;0.73;;
71975;SDS011;68326;52.124;5.424;2023-03-24T05:31:25;6.53;;;0.60;;
71975;SDS011;68326;52.124;5.424;2023-03-24T05:33:51;7.03;;;0.57;;
71975;SDS011;68326;52.124;5.424;2023-03-24T05:36:18;8.30;;;0.85;;
71975;SDS011;68326;52.124;5.424;2023-03-24T05:38:44;9.55;;;1.00;;
71975;SDS011;68326;52.124;5.424;2023-03-24T05:41:11;13.52;;;0.70;;
71975;SDS011;68326;52.124;5.424;2023-03-24T05:43:37;11.97;;;0.93;;
71975;SDS011;68326;52.124;5.424;2023-03-24T05:46:05;10.77;;;0.98;;
71975;SDS011;68326;52.124;5.424;2023-03-24T05:48:32;11.32;;;1.08;;
71975;SDS011;68326;52.124;5.424;2023-03-24T05:50:58;11.85;;;0.90;;
71975;SDS011;68326;52.124;5.424;2023-03-24T05:53:25;8.68;;;0.63;;
71975;SDS011;68326;52.124;5.424;2023-03-24T05:55:51;13.03;;;1.10;;
71975;SDS011;68326;52.124;5.424;2023-03-24T05:58:18;6.70;;;0.80;;
71975;SDS011;68326;52.124;5.424;2023-03-24T06:00:46;11.73;;;0.95;;
71975;SDS011;68326;52.124;5.424;2023-03-24T06:03:12;10.23;;;0.80;;
71975;SDS011;68326;52.124;5.424;2023-03-24T06:05:42;15.05;;;1.55;;
71975;SDS011;68326;52.124;5.424;2023-03-24T06:08:11;7.43;;;0.77;;
71975;SDS011;68326;52.124;5.424;2023-03-24T06:10:38;9.15;;;1.25;;
71975;SDS011;68326;52.124;5.424;2023-03-24T06:13:05;11.63;;;0.85;;
71975;SDS011;68326;52.124;5.424;2023-03-24T06:15:34;11.30;;;1.20;;
71975;SDS011;68326;52.124;5.424;2023-03-24T06:18:01;6.25;;;0.70;;
71975;SDS011;68326;52.124;5.424;2023-03-24T06:20:30;7.40;;;1.23;;
71975;SDS011;68326;52.124;5.424;2023-03-24T06:22:57;7.32;;;2.15;;
71975;SDS011;68326;52.124;5.424;2023-03-24T06:25:24;11.88;;;1.10;;
71975;SDS011;68326;52.124;5.424;2023-03-24T06:27:53;12.52;;;1.05;;
71975;SDS011;68326;52.124;5.424;2023-03-24T06:30:20;7.20;;;1.25;;
71975;SDS011;68326;52.124;5.424;2023-03-24T06:32:46;9.53;;;1.47;;
71975;SDS011;68326;52.124;5.424;2023-03-24T06:35:13;8.20;;;1.25;;
71975;SDS011;68326;52.124;5.424;2023-03-24T06:37:40;12.07;;;1.05;;
71975;SDS011;68326;52.124;5.424;2023-03-24T06:40:08;8.10;;;0.75;;
71975;SDS011;68326;52.124;5.424;2023-03-24T06:42:40;8.98;;;0.70;;
71975;SDS011;68326;52.124;5.424;2023-03-24T06:45:07;3.93;;;0.70;;
71975;SDS011;68326;52.124;5.424;2023-03-24T06:47:34;6.22;;;0.55;;
71975;SDS011;68326;52.124;5.424;2023-03-24T06:50:01;5.68;;;1.02;;
71975;SDS011;68326;52.124;5.424;2023-03-24T06:52:28;10.85;;;1.10;;
71975;SDS011;68326;52.124;5.424;2023-03-24T06:54:55;10.77;;;1.20;;
71975;SDS011;68326;52.124;5.424;2023-03-24T06:57:23;13.47;;;1.43;;
71975;SDS011;68326;52.124;5.424;2023-03-24T06:59:49;5.82;;;1.05;;
71975;SDS011;68326;52.124;5.424;2023-03-24T07:02:16;7.22;;;0.90;;
71975;SDS011;68326;52.124;5.424;2023-03-24T07:04:42;8.75;;;1.00;;
71975;SDS011;68326;52.124;5.424;2023-03-24T07:07:10;6.05;;;1.15;;
71975;SDS011;68326;52.124;5.424;2023-03-24T07:09:57;11.30;;;1.27;;
71975;SDS011;68326;52.124;5.424;2023-03-24T07:12:24;7.97;;;0.65;;
71975;SDS011;68326;52.124;5.424;2023-03-24T07:14:50;7.97;;;1.00;;
71975;SDS011;68326;52.124;5.424;2023-03-24T07:17:17;4.82;;;0.90;;
71975;SDS011;68326;52.124;5.424;2023-03-24T07:19:43;9.85;;;0.80;;
71975;SDS011;68326;52.124;5.424;2023-03-24T07:22:11;10.47;;;0.70;;
71975;SDS011;68326;52.124;5.424;2023-03-24T07:24:37;6.38;;;0.93;;
71975;SDS011;68326;52.124;5.424;2023-03-24T07:27:04;6.28;;;0.85;;
71975;SDS011;68326;52.124;5.424;2023-03-24T07:29:31;8.20;;;1.00;;
71975;SDS011;68326;52.124;5.424;2023-03-24T07:31:58;7.80;;;1.30;;
71975;SDS011;68326;52.124;5.424;2023-03-24T07:34:26;7.93;;;1.10;;
71975;SDS011;68326;52.124;5.424;2023-03-24T07:36:53;8.10;;;0.75;;
71975;SDS011;68326;52.124;5.424;2023-03-24T07:39:20;9.60;;;0.82;;
71975;SDS011;68326;52.124;5.424;2023-03-24T07:41:47;10.40;;;1.10;;
71975;SDS011;68326;52.124;5.424;2023-03-24T07:44:13;5.72;;;0.90;;
71975;SDS011;68326;52.124;5.424;2023-03-24T07:46:40;10.00;;;0.80;;
71975;SDS011;68326;52.124;5.424;2023-03-24T07:49:06;7.13;;;0.77;;
71975;SDS011;68326;52.124;5.424;2023-03-24T07:51:44;5.45;;;0.95;;
71975;SDS011;68326;52.124;5.424;2023-03-24T07:54:11;10.07;;;1.10;;
71975;SDS011;68326;52.124;5.424;2023-03-24T07:56:38;6.03;;;0.80;;
71975;SDS011;68326;52.124;5.424;2023-03-24T07:59:04;7.63;;;0.87;;
71975;SDS011;68326;52.124;5.424;2023-03-24T08:01:31;3.67;;;0.90;;
71975;SDS011;68326;52.124;5.424;2023-03-24T08:03:58;7.32;;;0.82;;
71975;SDS011;68326;52.124;5.424;2023-03-24T08:06:25;8.43;;;1.10;;
71975;SDS011;68326;52.124;5.424;2023-03-24T08:08:51;9.73;;;1.30;;
71975;SDS011;68326;52.124;5.424;2023-03-24T08:11:17;7.87;;;0.90;;
71975;SDS011;68326;52.124;5.424;2023-03-24T08:13:44;6.20;;;1.25;;
71975;SDS011;68326;52.124;5.424;2023-03-24T08:16:10;5.05;;;0.77;;
71975;SDS011;68326;52.124;5.424;2023-03-24T08:18:37;10.82;;;0.85;;
71975;SDS011;68326;52.124;5.424;2023-03-24T08:21:03;7.90;;;0.82;;
71975;SDS011;68326;52.124;5.424;2023-03-24T08:23:30;6.37;;;0.77;;
71975;SDS011;68326;52.124;5.424;2023-03-24T08:25:57;8.10;;;1.23;;
71975;SDS011;68326;52.124;5.424;2023-03-24T08:28:23;3.78;;;0.63;;
71975;SDS011;68326;52.124;5.424;2023-03-24T08:30:50;7.05;;;0.90;;
71975;SDS011;68326;52.124;5.424;2023-03-24T08:33:17;6.30;;;0.90;;
71975;SDS011;68326;52.124;5.424;2023-03-24T08:35:44;7.10;;;1.07;;
71975;SDS011;68326;52.124;5.424;2023-03-24T08:38:12;9.65;;;0.95;;
71975;SDS011;68326;52.124;5.424;2023-03-24T08:40:43;6.55;;;1.10;;
71975;SDS011;68326;52.124;5.424;2023-03-24T08:43:12;7.72;;;0.93;;
71975;SDS011;68326;52.124;5.424;2023-03-24T08:45:40;6.88;;;1.00;;
71975;SDS011;68326;52.124;5.424;2023-03-24T08:48:07;9.53;;;1.20;;
71975;SDS011;68326;52.124;5.424;2023-03-24T08:50:36;9.18;;;1.00;;
71975;SDS011;68326;52.124;5.424;2023-03-24T08:53:05;5.70;;;1.00;;
71975;SDS011;68326;52.124;5.424;2023-03-24T08:55:32;9.40;;;1.00;;
71975;SDS011;68326;52.124;5.424;2023-03-24T08:57:59;10.55;;;1.02;;
71975;SDS011;68326;52.124;5.424;2023-03-24T09:00:26;8.03;;;0.70;;
71975;SDS011;68326;52.124;5.424;2023-03-24T09:02:54;5.97;;;0.85;;
71975;SDS011;68326;52.124;5.424;2023-03-24T09:05:21;8.23;;;0.90;;
71975;SDS011;68326;52.124;5.424;2023-03-24T09:08:06;9.23;;;1.00;;
71975;SDS011;68326;52.124;5.424;2023-03-24T09:10:33;8.40;;;1.13;;
71975;SDS011;68326;52.124;5.424;2023-03-24T09:13:00;6.40;;;1.13;;
71975;SDS011;68326;52.124;5.424;2023-03-24T09:15:26;4.78;;;1.00;;
71975;SDS011;68326;52.124;5.424;2023-03-24T09:17:53;9.07;;;0.90;;
71975;SDS011;68326;52.124;5.424;2023-03-24T09:20:19;12.02;;;0.95;;
71975;SDS011;68326;52.124;5.424;2023-03-24T09:22:46;8.55;;;1.35;;
71975;SDS011;68326;52.124;5.424;2023-03-24T09:25:14;6.40;;;0.80;;
71975;SDS011;68326;52.124;5.424;2023-03-24T09:27:43;5.47;;;0.93;;
71975;SDS011;68326;52.124;5.424;2023-03-24T09:30:10;6.53;;;0.80;;
71975;SDS011;68326;52.124;5.424;2023-03-24T09:32:37;5.50;;;0.80;;
71975;SDS011;68326;52.124;5.424;2023-03-24T09:35:04;4.22;;;0.65;;
71975;SDS011;68326;52.124;5.424;2023-03-24T09:37:33;5.67;;;0.77;;
71975;SDS011;68326;52.124;5.424;2023-03-24T09:40:01;6.18;;;0.90;;
71975;SDS011;68326;52.124;5.424;2023-03-24T09:42:31;7.57;;;1.30;;
71975;SDS011;68326;52.124;5.424;2023-03-24T09:45:05;5.78;;;1.08;;
71975;SDS011;68326;52.124;5.424;2023-03-24T09:47:38;10.05;;;1.45;;
71975;SDS011;68326;52.124;5.424;2023-03-24T09:50:08;5.47;;;0.80;;
71975;SDS011;68326;52.124;5.424;2023-03-24T09:52:54;8.95;;;0.98;;
71975;SDS011;68326;52.124;5.424;2023-03-24T09:55:25;9.20;;;1.08;;
71975;SDS011;68326;52.124;5.424;2023-03-24T09:57:55;5.00;;;0.95;;
71975;SDS011;68326;52.124;5.424;2023-03-24T10:00:27;3.75;;;0.70;;
71975;SDS011;68326;52.124;5.424;2023-03-24T10:02:56;5.35;;;0.82;;
71975;SDS011;68326;52.124;5.424;2023-03-24T10:05:34;7.45;;;0.57;;
71975;SDS011;68326;52.124;5.424;2023-03-24T10:16:37;13.70;;;1.30;;
71975;SDS011;68326;52.124;5.424;2023-03-24T10:30:25;7.07;;;0.85;;
71975;SDS011;68326;52.124;5.424;2023-03-24T10:32:55;6.13;;;0.57;;
71975;SDS011;68326;52.124;5.424;2023-03-24T10:35:23;5.93;;;0.65;;
71975;SDS011;68326;52.124;5.424;2023-03-24T10:37:55;5.75;;;0.68;;
71975;SDS011;68326;52.124;5.424;2023-03-24T10:40:30;7.82;;;1.23;;
71975;SDS011;68326;52.124;5.424;2023-03-24T10:42:59;4.07;;;0.70;;
71975;SDS011;68326;52.124;5.424;2023-03-24T10:45:34;4.68;;;0.70;;
71975;SDS011;68326;52.124;5.424;2023-03-24T10:48:04;7.35;;;1.05;;
71975;SDS011;68326;52.124;5.424;2023-03-24T10:50:32;5.18;;;1.00;;
71975;SDS011;68326;52.124;5.424;2023-03-24T10:53:06;9.00;;;0.85;;
71975;SDS011;68326;52.124;5.424;2023-03-24T10:55:35;9.38;;;0.80;;
71975;SDS011;68326;52.124;5.424;2023-03-24T11:00:53;7.47;;;1.08;;
71975;SDS011;68326;52.124;5.424;2023-03-24T11:03:22;5.75;;;1.20;;
71975;SDS011;68326;52.124;5.424;2023-03-24T11:05:58;8.27;;;1.20;;
71975;SDS011;68326;52.124;5.424;2023-03-24T11:08:37;6.10;;;0.90;;
71975;SDS011;68326;52.124;5.424;2023-03-24T11:11:14;8.57;;;1.13;;
71975;SDS011;68326;52.124;5.424;2023-03-24T11:13:55;6.57;;;1.30;;
71975;SDS011;68326;52.124;5.424;2023-03-24T11:16:30;8.35;;;0.73;;
71975;SDS011;68326;52.124;5.424;2023-03-24T11:19:02;5.68;;;1.02;;
71975;SDS011;68326;52.124;5.424;2023-03-24T11:21:33;5.93;;;0.90;;
71975;SDS011;68326;52.124;5.424;2023-03-24T11:24:07;5.38;;;1.33;;
71975;SDS011;68326;52.124;5.424;2023-03-24T11:26:37;6.65;;;0.70;;
71975;SDS011;68326;52.124;5.424;2023-03-24T11:29:05;6.28;;;1.13;;
71975;SDS011;68326;52.124;5.424;2023-03-24T11:31:37;5.22;;;0.98;;
71975;SDS011;68326;52.124;5.424;2023-03-24T11:34:08;6.27;;;1.20;;
71975;SDS011;68326;52.124;5.424;2023-03-24T11:36:43;8.25;;;0.80;;
71975;SDS011;68326;52.124;5.424;2023-03-24T11:39:18;8.93;;;0.85;;
71975;SDS011;68326;52.124;5.424;2023-03-24T11:42:29;7.22;;;1.20;;
71975;SDS011;68326;52.124;5.424;2023-03-24T11:47:11;4.30;;;0.65;;
71975;SDS011;68326;52.124;5.424;2023-03-24T11:49:51;5.38;;;0.60;;
71975;SDS011;68326;52.124;5.424;2023-03-24T11:52:28;3.15;;;0.30;;
71975;SDS011;68326;52.124;5.424;2023-03-24T11:54:58;2.42;;;0.70;;
71975;SDS011;68326;52.124;5.424;2023-03-24T11:57:27;3.13;;;0.38;;
71975;SDS011;68326;52.124;5.424;2023-03-24T12:00:17;6.05;;;0.50;;
71975;SDS011;68326;52.124;5.424;2023-03-24T12:13:32;7.37;;;0.80;;
71975;SDS011;68326;52.124;5.424;2023-03-24T12:27:25;5.07;;;0.47;;
71975;SDS011;68326;52.124;5.424;2023-03-24T12:41:44;7.10;;;0.87;;
71975;SDS011;68326;52.124;5.424;2023-03-24T12:56:07;3.67;;;0.60;;
71975;SDS011;68326;52.124;5.424;2023-03-24T12:58:41;7.93;;;1.02;;
71975;SDS011;68326;52.124;5.424;2023-03-24T13:01:33;4.53;;;0.50;;
71975;SDS011;68326;52.124;5.424;2023-03-24T13:06:56;4.95;;;0.40;;
71975;SDS011;68326;52.124;5.424;2023-03-24T13:17:38;3.75;;;0.30;;
71975;SDS011;68326;52.124;5.424;2023-03-24T13:20:16;2.55;;;0.60;;
71975;SDS011;68326;52.124;5.424;2023-03-24T13:22:58;3.27;;;0.30;;
71975;SDS011;68326;52.124;5.424;2023-03-24T13:28:31;7.95;;;0.82;;
71975;SDS011;68326;52.124;5.424;2023-03-24T13:31:05;6.70;;;0.55;;
71975;SDS011;68326;52.124;5.424;2023-03-24T13:33:35;3.35;;;0.40;;
71975;SDS011;68326;52.124;5.424;2023-03-24T13:36:21;4.43;;;0.53;;
71975;SDS011;68326;52.124;5.424;2023-03-24T13:39:01;4.55;;;0.85;;
71975;SDS011;68326;52.124;5.424;2023-03-24T13:41:32;5.40;;;0.50;;
71975;SDS011;68326;52.124;5.424;2023-03-24T13:44:16;4.88;;;0.50;;
71975;SDS011;68326;52.124;5.424;2023-03-24T13:46:58;6.35;;;0.80;;
71975;SDS011;68326;52.124;5.424;2023-03-24T13:49:38;6.47;;;0.77;;
71975;SDS011;68326;52.124;5.424;2023-03-24T13:52:18;4.20;;;0.90;;
71975;SDS011;68326;52.124;5.424;2023-03-24T13:54:53;5.45;;;0.60;;
71975;SDS011;68326;52.124;5.424;2023-03-24T13:57:23;5.30;;;0.60;;
71975;SDS011;68326;52.124;5.424;2023-03-24T14:00:15;5.47;;;0.60;;
71975;SDS011;68326;52.124;5.424;2023-03-24T14:06:15;2.50;;;0.38;;
71975;SDS011;68326;52.124;5.424;2023-03-24T14:08:34;1.90;;;0.32;;
71975;SDS011;68326;52.124;5.424;2023-03-24T14:11:08;4.25;;;1.05;;
71975;SDS011;68326;52.124;5.424;2023-03-24T14:14:04;3.53;;;0.40;;
71975;SDS011;68326;52.124;5.424;2023-03-24T14:16:41;1.40;;;0.20;;
71975;SDS011;68326;52.124;5.424;2023-03-24T14:19:21;1.75;;;0.20;;
71975;SDS011;68326;52.124;5.424;2023-03-24T14:22:12;3.25;;;0.20;;
71975;SDS011;68326;52.124;5.424;2023-03-24T14:24:42;3.38;;;0.17;;
71975;SDS011;68326;52.124;5.424;2023-03-24T14:27:21;3.85;;;0.30;;
71975;SDS011;68326;52.124;5.424;2023-03-24T14:30:04;3.53;;;0.30;;
71975;SDS011;68326;52.124;5.424;2023-03-24T14:32:44;4.75;;;0.40;;
71975;SDS011;68326;52.124;5.424;2023-03-24T14:37:55;4.43;;;0.50;;
71975;SDS011;68326;52.124;5.424;2023-03-24T14:40:26;2.35;;;0.30;;
71975;SDS011;68326;52.124;5.424;2023-03-24T14:43:03;2.17;;;0.40;;
71975;SDS011;68326;52.124;5.424;2023-03-24T14:45:51;4.32;;;0.30;;
71975;SDS011;68326;52.124;5.424;2023-03-24T14:48:20;4.30;;;0.20;;
71975;SDS011;68326;52.124;5.424;2023-03-24T14:50:52;0.95;;;0.20;;
71975;SDS011;68326;52.124;5.424;2023-03-24T14:53:20;5.85;;;0.40;;
71975;SDS011;68326;52.124;5.424;2023-03-24T14:55:48;2.50;;;0.43;;
71975;SDS011;68326;52.124;5.424;2023-03-24T14:58:23;4.30;;;0.65;;
71975;SDS011;68326;52.124;5.424;2023-03-24T15:00:57;1.17;;;0.38;;
71975;SDS011;68326;52.124;5.424;2023-03-24T15:06:42;4.00;;;0.30;;
71975;SDS011;68326;52.124;5.424;2023-03-24T15:09:13;2.20;;;0.20;;
71975;SDS011;68326;52.124;5.424;2023-03-24T15:11:41;4.85;;;0.45;;
71975;SDS011;68326;52.124;5.424;2023-03-24T15:14:15;4.15;;;0.30;;
71975;SDS011;68326;52.124;5.424;2023-03-24T15:17:05;3.08;;;0.73;;
71975;SDS011;68326;52.124;5.424;2023-03-24T15:19:45;7.63;;;0.73;;
71975;SDS011;68326;52.124;5.424;2023-03-24T15:22:17;4.53;;;0.35;;
71975;SDS011;68326;52.124;5.424;2023-03-24T15:24:46;5.68;;;0.32;;
71975;SDS011;68326;52.124;5.424;2023-03-24T15:27:18;5.95;;;0.60;;
71975;SDS011;68326;52.124;5.424;2023-03-24T15:29:52;4.88;;;0.45;;
71975;SDS011;68326;52.124;5.424;2023-03-24T15:32:21;3.42;;;0.60;;
71975;SDS011;68326;52.124;5.424;2023-03-24T15:34:53;3.33;;;0.32;;
71975;SDS011;68326;52.124;5.424;2023-03-24T15:40:31;3.53;;;0.45;;
71975;SDS011;68326;52.124;5.424;2023-03-24T15:42:53;8.20;;;0.70;;
71975;SDS011;68326;52.124;5.424;2023-03-24T15:48:11;3.07;;;0.77;;
71975;SDS011;68326;52.124;5.424;2023-03-24T15:50:41;3.33;;;0.55;;
71975;SDS011;68326;52.124;5.424;2023-03-24T15:53:25;3.38;;;0.40;;
71975;SDS011;68326;52.124;5.424;2023-03-24T16:01:14;3.47;;;0.60;;
71975;SDS011;68326;52.124;5.424;2023-03-24T16:03:44;5.63;;;0.73;;
71975;SDS011;68326;52.124;5.424;2023-03-24T16:06:14;2.92;;;0.50;;
71975;SDS011;68326;52.124;5.424;2023-03-24T16:08:50;5.38;;;0.57;;
71975;SDS011;68326;52.124;5.424;2023-03-24T16:11:17;3.50;;;0.47;;
71975;SDS011;68326;52.124;5.424;2023-03-24T16:13:44;8.83;;;0.70;;
71975;SDS011;68326;52.124;5.424;2023-03-24T16:18:41;8.00;;;0.65;;
71975;SDS011;68326;52.124;5.424;2023-03-24T16:21:13;6.93;;;1.88;;
71975;SDS011;68326;52.124;5.424;2023-03-24T16:23:42;6.40;;;0.47;;
71975;SDS011;68326;52.124;5.424;2023-03-24T16:26:13;3.97;;;0.30;;
71975;SDS011;68326;52.124;5.424;2023-03-24T16:29:16;7.63;;;0.30;;
71975;SDS011;68326;52.124;5.424;2023-03-24T16:31:48;5.10;;;0.40;;
71975;SDS011;68326;52.124;5.424;2023-03-24T16:34:19;6.80;;;0.55;;
71975;SDS011;68326;52.124;5.424;2023-03-24T16:36:47;6.53;;;0.38;;
71975;SDS011;68326;52.124;5.424;2023-03-24T16:39:16;5.90;;;0.45;;
71975;SDS011;68326;52.124;5.424;2023-03-24T16:41:47;6.60;;;0.55;;
71975;SDS011;68326;52.124;5.424;2023-03-24T16:44:14;5.28;;;0.70;;
71975;SDS011;68326;52.124;5.424;2023-03-24T16:46:42;6.55;;;0.60;;
71975;SDS011;68326;52.124;5.424;2023-03-24T16:49:12;6.43;;;0.50;;
71975;SDS011;68326;52.124;5.424;2023-03-24T16:51:41;6.33;;;0.60;;
71975;SDS011;68326;52.124;5.424;2023-03-24T16:54:08;4.90;;;0.40;;
71975;SDS011;68326;52.124;5.424;2023-03-24T16:56:35;4.57;;;0.32;;
71975;SDS011;68326;52.124;5.424;2023-03-24T16:59:01;4.53;;;0.77;;
71975;SDS011;68326;52.124;5.424;2023-03-24T17:01:30;3.92;;;0.75;;
71975;SDS011;68326;52.124;5.424;2023-03-24T17:04:02;5.80;;;0.37;;
71975;SDS011;68326;52.124;5.424;2023-03-24T17:06:46;4.85;;;0.47;;
71975;SDS011;68326;52.124;5.424;2023-03-24T17:09:16;2.78;;;0.20;;
71975;SDS011;68326;52.124;5.424;2023-03-24T17:11:43;2.83;;;0.30;;
71975;SDS011;68326;52.124;5.424;2023-03-24T17:14:13;2.28;;;0.40;;
71975;SDS011;68326;52.124;5.424;2023-03-24T17:16:42;4.33;;;0.30;;
71975;SDS011;68326;52.124;5.424;2023-03-24T17:19:10;6.93;;;0.60;;
71975;SDS011;68326;52.124;5.424;2023-03-24T17:21:43;3.28;;;0.30;;
71975;SDS011;68326;52.124;5.424;2023-03-24T17:24:17;4.22;;;0.30;;
71975;SDS011;68326;52.124;5.424;2023-03-24T17:26:44;4.20;;;0.65;;
71975;SDS011;68326;52.124;5.424;2023-03-24T17:29:11;4.20;;;0.60;;
71975;SDS011;68326;52.124;5.424;2023-03-24T17:31:38;4.45;;;0.22;;
71975;SDS011;68326;52.124;5.424;2023-03-24T17:34:11;4.22;;;0.43;;
71975;SDS011;68326;52.124;5.424;2023-03-24T17:36:47;4.43;;;0.30;;
71975;SDS011;68326;52.124;5.424;2023-03-24T17:39:15;6.88;;;0.63;;